createdAt,value
2023-09-23T00:00:28.995Z,100244.66
2023-09-23T00:05:54.977Z,100243.41
2023-09-23T00:11:17.333Z,100245.14
2023-09-23T00:16:39.886Z,100258.09
2023-09-23T00:22:03.742Z,100263.06
2023-09-23T00:27:27.795Z,100257.49
2023-09-23T00:32:50.251Z,100249.98
2023-09-23T00:38:13.658Z,100245.74
2023-09-23T00:43:36.242Z,100257.72
2023-09-23T00:49:00.712Z,100252.48
2023-09-23T00:54:23.108Z,100266.69
2023-09-23T00:59:45.787Z,100262.50
2023-09-23T01:05:09.731Z,100247.84
2023-09-23T01:10:32.770Z,100268.91
2023-09-23T01:15:55.145Z,100276.49
2023-09-23T01:21:17.495Z,100272.94
2023-09-23T01:26:40.587Z,100260.71
2023-09-23T01:32:16.299Z,100244.88
2023-09-23T01:37:39.412Z,100251.73
2023-09-23T01:43:01.733Z,100246.73
2023-09-23T01:48:24.639Z,100241.48
2023-09-23T01:53:47.090Z,100257.01
2023-09-23T01:59:11.152Z,100253.58
2023-09-23T02:04:35.384Z,100253.73
2023-09-23T02:09:57.840Z,100243.23
2023-09-23T02:15:20.365Z,100245.62
2023-09-23T02:20:44.544Z,100257.44
2023-09-23T02:26:08.295Z,100258.61
2023-09-23T02:31:31.379Z,100271.11
2023-09-23T02:36:54.452Z,100275.08
2023-09-23T02:42:16.869Z,100277.63
2023-09-23T02:47:39.450Z,100276.05
2023-09-23T02:53:03.173Z,100276.20
2023-09-23T02:58:25.867Z,100271.42
2023-09-23T03:03:49.248Z,100269.85
2023-09-23T03:09:12.526Z,100262.64
2023-09-23T03:14:41.116Z,100267.52
2023-09-23T03:20:08.065Z,100263.27
2023-09-23T03:25:31.730Z,100264.43
2023-09-23T03:30:56.075Z,100270.27
2023-09-23T03:36:22.001Z,100265.33
2023-09-23T03:41:48.059Z,100279.72
2023-09-23T03:47:10.563Z,100271.89
2023-09-23T03:52:35.179Z,100267.95
2023-09-23T03:57:59.086Z,100277.20
2023-09-23T04:03:21.699Z,100287.89
2023-09-23T04:08:45.716Z,100277.63
2023-09-23T04:14:08.625Z,100303.34
2023-09-23T04:19:31.545Z,100320.12
2023-09-23T04:24:55.101Z,100319.70
2023-09-23T04:30:18.859Z,100345.16
2023-09-23T04:35:41.894Z,100346.30
2023-09-23T04:41:05.236Z,100372.58
2023-09-23T04:46:28.869Z,100368.45
2023-09-23T04:51:52.200Z,100358.51
2023-09-23T04:57:16.098Z,100373.99
2023-09-23T05:02:43.213Z,100380.09
2023-09-23T05:08:06.806Z,100383.78
2023-09-23T05:13:30.720Z,100411.91
2023-09-23T05:18:54.973Z,100425.67
2023-09-23T05:24:17.800Z,100450.55
2023-09-23T05:29:40.101Z,100433.22
2023-09-23T05:35:03.395Z,100437.64
2023-09-23T05:40:27.880Z,100443.63
2023-09-23T05:45:50.502Z,100445.02
2023-09-23T05:51:17.587Z,100436.49
2023-09-23T05:56:40.242Z,100428.37
2023-09-23T06:02:04.694Z,100411.25
2023-09-23T06:07:28.350Z,100411.83
2023-09-23T06:12:51.278Z,100403.99
2023-09-23T06:18:14.221Z,100429.38
2023-09-23T06:23:37.673Z,100443.31
2023-09-23T06:29:00.380Z,100460.77
2023-09-23T06:34:23.020Z,100471.23
2023-09-23T06:39:45.711Z,100485.30
2023-09-23T06:45:09.790Z,100481.42
2023-09-23T06:50:32.950Z,100489.25
2023-09-23T06:55:55.901Z,100478.55
2023-09-23T07:01:18.954Z,100490.55
2023-09-23T07:06:44.270Z,100493.66
2023-09-23T07:12:10.374Z,100489.05
2023-09-23T07:17:34.619Z,100489.84
2023-09-23T07:22:58.103Z,100479.71
2023-09-23T07:28:20.824Z,100498.47
2023-09-23T07:33:43.294Z,100517.67
2023-09-23T07:39:05.840Z,100495.00
2023-09-23T07:44:28.772Z,100498.70
2023-09-23T07:49:52.111Z,100501.79
2023-09-23T07:55:15.374Z,100515.22
2023-09-23T08:00:38.118Z,100538.37
2023-09-23T08:06:00.968Z,100514.06
2023-09-23T08:11:23.514Z,100464.22
2023-09-23T08:16:47.077Z,100474.50
2023-09-23T08:22:09.460Z,100482.42
2023-09-23T08:27:32.580Z,100483.15
2023-09-23T08:32:56.624Z,100474.02
2023-09-23T08:38:19.414Z,100474.47
2023-09-23T08:43:43.760Z,100474.86
2023-09-23T08:49:08.913Z,100482.00
2023-09-23T08:54:33.669Z,100478.12
2023-09-23T08:59:58.218Z,100488.47
2023-09-23T09:05:22.353Z,100493.90
2023-09-23T09:10:45.484Z,100503.44
2023-09-23T09:16:09.763Z,100509.73
2023-09-23T09:21:35.815Z,100523.17
2023-09-23T09:26:58.890Z,100510.45
2023-09-23T09:32:23.050Z,100526.58
2023-09-23T09:37:55.286Z,100519.08
2023-09-23T09:43:16.159Z,100514.66
2023-09-23T09:48:39.452Z,100514.76
2023-09-23T09:54:04.507Z,100513.87
2023-09-23T09:59:44.929Z,100523.38
2023-09-23T10:05:11.001Z,100520.11
2023-09-23T10:10:37.482Z,100530.88
2023-09-23T10:16:04.720Z,100531.54
2023-09-23T10:21:39.909Z,100532.58
2023-09-23T10:27:02.608Z,100530.00
2023-09-23T10:32:32.446Z,100530.18
2023-09-23T10:37:49.225Z,100530.64
2023-09-23T10:43:13.673Z,100522.10
2023-09-23T10:48:37.742Z,100528.77
2023-09-23T10:54:02.061Z,100519.03
2023-09-23T10:59:24.727Z,100518.28
2023-09-23T11:04:50.018Z,100530.35
2023-09-23T11:10:14.458Z,100528.51
2023-09-23T11:15:37.623Z,100528.58
2023-09-23T11:21:01.412Z,100530.89
2023-09-23T11:26:25.916Z,100517.09
2023-09-23T11:31:49.315Z,100519.31
2023-09-23T11:37:12.095Z,100523.19
2023-09-23T11:42:34.981Z,100514.17
2023-09-23T11:47:58.528Z,100528.72
2023-09-23T11:53:21.027Z,100534.70
2023-09-23T11:58:48.922Z,100529.47
2023-09-23T12:04:07.486Z,100546.70
2023-09-23T12:09:29.966Z,100552.28
2023-09-23T12:14:53.038Z,100563.39
2023-09-23T12:20:16.483Z,100562.89
2023-09-23T12:25:41.037Z,100582.79
2023-09-23T12:31:03.434Z,100569.52
2023-09-23T12:36:26.439Z,100577.28
2023-09-23T12:41:49.027Z,100575.64
2023-09-23T12:47:11.491Z,100576.67
2023-09-23T12:52:34.432Z,100584.96
2023-09-23T12:57:57.213Z,100576.69
2023-09-23T13:03:19.623Z,100600.40
2023-09-23T13:08:42.154Z,100599.55
2023-09-23T13:14:07.142Z,100610.61
2023-09-23T13:19:58.772Z,100621.94
2023-09-23T13:25:21.788Z,100633.59
2023-09-23T13:30:44.312Z,100637.23
2023-09-23T13:36:07.300Z,100631.05
2023-09-23T13:41:30.116Z,100646.14
2023-09-23T13:46:53.473Z,100661.72
2023-09-23T13:52:16.061Z,100666.27
2023-09-23T13:57:38.516Z,100664.61
2023-09-23T14:03:01.245Z,100658.86
2023-09-23T14:08:23.901Z,100662.26
2023-09-23T14:13:46.861Z,100657.16
2023-09-23T14:19:09.588Z,100646.26
2023-09-23T14:24:32.006Z,100656.52
2023-09-23T14:29:55.066Z,100663.61
2023-09-23T14:35:17.670Z,100682.34
2023-09-23T14:40:40.111Z,100677.08
2023-09-23T14:46:02.894Z,100670.28
2023-09-23T14:52:02.533Z,100702.94
2023-09-23T14:57:28.751Z,100703.42
2023-09-23T15:02:51.557Z,100706.25
2023-09-23T15:08:14.505Z,100722.94
2023-09-23T15:13:37.763Z,100715.25
2023-09-23T15:19:00.534Z,100727.99
2023-09-23T15:24:23.666Z,100750.53
2023-09-23T15:29:47.785Z,100749.30
2023-09-23T15:35:12.894Z,100752.84
2023-09-23T15:40:37.099Z,100761.27
2023-09-23T15:46:02.672Z,100774.62
2023-09-23T15:51:33.075Z,100775.34
2023-09-23T15:56:58.573Z,100789.77
2023-09-23T16:02:21.938Z,100822.98
2023-09-23T16:13:26.808Z,100835.20
2023-09-23T16:18:49.925Z,100856.19
2023-09-23T16:24:12.798Z,100850.92
2023-09-23T16:29:35.822Z,100844.65
2023-09-23T16:34:58.982Z,100861.45
2023-09-23T16:40:23.814Z,100857.36
2023-09-23T16:45:46.947Z,100871.00
2023-09-23T16:51:10.381Z,100884.71
2023-09-23T16:56:33.361Z,100880.02
2023-09-23T17:01:56.514Z,100889.75
2023-09-23T17:11:51.062Z,100910.59
2023-09-23T17:17:13.652Z,100914.91
2023-09-23T17:22:36.788Z,100920.03
2023-09-23T17:27:59.868Z,100914.61
2023-09-23T17:33:22.527Z,100922.27
2023-09-23T17:38:46.480Z,100923.19
2023-09-23T17:44:10.989Z,100939.69
2023-09-23T17:49:33.435Z,100959.44
2023-09-23T17:54:58.025Z,100951.00
2023-09-23T18:00:21.527Z,100957.69
2023-09-23T18:05:46.270Z,100959.07
2023-09-23T18:11:15.042Z,100980.27
2023-09-23T18:16:38.319Z,100991.16
2023-09-23T18:22:01.579Z,100992.48
2023-09-23T18:27:25.183Z,101001.92
2023-09-23T18:32:49.610Z,101009.87
2023-09-23T18:38:13.800Z,101009.28
2023-09-23T18:43:37.369Z,101012.48
2023-09-23T18:49:00.184Z,101021.97
2023-09-23T18:54:23.669Z,101027.27
2023-09-23T18:59:47.176Z,101043.23
2023-09-23T19:05:10.673Z,101052.32
2023-09-23T19:10:33.944Z,101053.44
2023-09-23T19:16:02.612Z,101074.92
2023-09-23T19:21:25.646Z,101076.27
2023-09-23T19:26:57.426Z,101083.76
2023-09-23T19:32:20.253Z,101088.91
2023-09-23T19:37:44.617Z,101100.91
2023-09-23T19:43:07.636Z,101113.91
2023-09-23T19:48:30.978Z,101102.27
2023-09-23T19:53:54.525Z,101106.17
2023-09-23T19:59:17.308Z,101117.21
2023-09-23T20:04:42.485Z,101141.95
2023-09-23T20:10:10.050Z,101130.08
2023-09-23T20:15:33.041Z,101151.59
2023-09-23T20:20:56.583Z,101155.98
2023-09-23T20:26:19.357Z,101167.70
2023-09-23T20:31:43.993Z,101168.16
2023-09-23T20:37:08.593Z,101159.03
2023-09-23T20:42:31.241Z,101167.48
2023-09-23T20:47:54.779Z,101176.13
2023-09-23T20:53:18.231Z,101187.34
2023-09-23T20:58:41.061Z,101189.66
2023-09-23T21:04:04.161Z,101195.48
2023-09-23T21:09:26.632Z,101204.03
2023-09-23T21:14:49.126Z,101206.30
2023-09-23T21:20:13.475Z,101210.41
2023-09-23T21:25:38.839Z,101217.86
2023-09-23T21:31:01.139Z,101219.58
2023-09-23T21:36:23.590Z,101226.33
2023-09-23T21:41:46.439Z,101223.55
2023-09-23T21:47:10.210Z,101230.66
2023-09-23T21:52:32.764Z,101237.88
2023-09-23T21:57:55.215Z,101243.57
2023-09-23T22:03:18.603Z,101234.87
2023-09-23T22:08:42.570Z,101238.53
2023-09-23T22:14:06.801Z,101246.81
2023-09-23T22:19:29.467Z,101248.02
2023-09-23T22:24:51.820Z,101241.03
2023-09-23T22:30:16.293Z,101253.63
2023-09-23T22:35:40.179Z,101280.73
2023-09-23T22:41:03.113Z,101283.54
2023-09-23T22:46:25.566Z,101289.56
2023-09-23T22:51:47.948Z,101298.28
2023-09-23T22:57:12.146Z,101302.91
2023-09-23T23:02:34.573Z,101317.86
2023-09-23T23:08:05.041Z,101320.25
2023-09-23T23:13:27.333Z,101334.75
2023-09-23T23:18:50.593Z,101328.95
2023-09-23T23:24:13.933Z,101343.90
2023-09-23T23:29:36.331Z,101346.70
2023-09-23T23:35:00.003Z,101352.94
2023-09-23T23:40:24.729Z,101358.65
2023-09-23T23:45:47.275Z,101370.67
2023-09-23T23:51:21.259Z,101374.62
2023-09-23T23:56:44.142Z,101379.25
